Airfield :
LOGIN :

Register | Disclaimer

   EN    FR    IT 

 










Legend :    VFR   Marginal VFR   IFR   Intensive IFR   Very Intensive IFR
Visi :
Ceiling :
>= 8 km
>= 3000ft
5 to 8 km
1000 to 3000 ft
1500m to 5 km
500 to 1000 ft
800 to 1500m
200 to 500 ft
< 800m
< 200 ft
Symbols :   Thunderstorms  Fog  Heavy snow  Heavy precipitations  Wind > 20 kt
SIGMETs :     Misc.  Thunderstorms  Icing  Turbulence  Mountain Waves  Volcanic Ashes







- Airport Elevation : 1 ft
- Download approach charts


EGCK - Caernarfon

CURRENT METAR :
  • 171120Z 31010KT 9999 VCSH SCT010 BKN019 BKN024 13/11 Q1020

EXPIRED METARs :
  • 171050Z 25004KT 9999 FEW018 BKN034 14/12 Q1020
  • 171020Z 24004KT 9999 FEW017 BKN030 14/11 Q1019
  • 170950Z 26004KT 9999 FEW018 BKN030 14/11 Q1019
  • 170920Z VRB02KT 9999 FEW013 SCT033 13/12 Q1019
  • 170850Z VRB03KT 9999 FEW018 BKN032 12/11 Q1018

TAF TAF EGCK
Valid from the 17 at 12:00 until the 17 at 21:00 UTC


171059Z 1712/1721 28008KT 9999 SCT030
BECMG 1712/1715 36010KT
No reported NOTAMs for that airfield.



MET'MAP, your aeronautical weather chart ! - Copyright ORBIFLY December 2007 - Disclaimer

ORBIFLY MET'MAP TEAM :

Programming & Development : Alexandra Zaïnal
Concept & Development : Baudouin d'Aumeries
Co-Development & Prog : Marc-Olivier Méhu
Technical & hardware support : Manuel Goepfert

Contact : metmap@orbifly.com




SOURCES & CREDITS :

   NOAA